sensor_id;sensor_type;location;lat;lon;timestamp;P1;durP1;ratioP1;P2;durP2;ratioP2
57385;SDS011;61487;56.494;21.014;2022-07-25T00:00:41;10.60;;;6.18;;
57385;SDS011;61487;56.494;21.014;2022-07-25T00:03:08;9.93;;;6.65;;
57385;SDS011;61487;56.494;21.014;2022-07-25T00:05:36;11.38;;;5.45;;
57385;SDS011;61487;56.494;21.014;2022-07-25T00:08:03;11.98;;;6.93;;
57385;SDS011;61487;56.494;21.014;2022-07-25T00:10:31;11.52;;;4.50;;
57385;SDS011;61487;56.494;21.014;2022-07-25T00:12:58;7.60;;;4.97;;
57385;SDS011;61487;56.494;21.014;2022-07-25T00:15:25;9.40;;;5.32;;
57385;SDS011;61487;56.494;21.014;2022-07-25T00:17:52;9.65;;;5.30;;
57385;SDS011;61487;56.494;21.014;2022-07-25T00:20:19;9.60;;;5.03;;
57385;SDS011;61487;56.494;21.014;2022-07-25T00:22:46;9.70;;;4.80;;
57385;SDS011;61487;56.494;21.014;2022-07-25T00:25:13;5.55;;;4.55;;
57385;SDS011;61487;56.494;21.014;2022-07-25T00:27:40;8.57;;;4.75;;
57385;SDS011;61487;56.494;21.014;2022-07-25T00:30:07;5.57;;;4.47;;
57385;SDS011;61487;56.494;21.014;2022-07-25T00:32:35;7.57;;;4.85;;
57385;SDS011;61487;56.494;21.014;2022-07-25T00:35:03;10.20;;;5.97;;
57385;SDS011;61487;56.494;21.014;2022-07-25T00:37:30;7.25;;;5.47;;
57385;SDS011;61487;56.494;21.014;2022-07-25T00:39:57;8.63;;;5.15;;
57385;SDS011;61487;56.494;21.014;2022-07-25T00:42:24;11.18;;;5.38;;
57385;SDS011;61487;56.494;21.014;2022-07-25T00:44:51;7.07;;;4.30;;
57385;SDS011;61487;56.494;21.014;2022-07-25T00:47:19;5.18;;;3.83;;
57385;SDS011;61487;56.494;21.014;2022-07-25T00:49:46;8.27;;;4.40;;
57385;SDS011;61487;56.494;21.014;2022-07-25T00:52:14;6.70;;;4.75;;
57385;SDS011;61487;56.494;21.014;2022-07-25T00:54:41;8.05;;;4.75;;
57385;SDS011;61487;56.494;21.014;2022-07-25T00:57:10;9.18;;;4.63;;
57385;SDS011;61487;56.494;21.014;2022-07-25T00:59:37;5.45;;;4.90;;
57385;SDS011;61487;56.494;21.014;2022-07-25T01:02:04;6.93;;;4.60;;
57385;SDS011;61487;56.494;21.014;2022-07-25T01:04:31;12.88;;;5.72;;
57385;SDS011;61487;56.494;21.014;2022-07-25T01:06:59;6.85;;;4.28;;
57385;SDS011;61487;56.494;21.014;2022-07-25T01:09:27;7.53;;;4.70;;
57385;SDS011;61487;56.494;21.014;2022-07-25T01:11:54;12.75;;;4.50;;
57385;SDS011;61487;56.494;21.014;2022-07-25T01:14:21;13.32;;;5.15;;
57385;SDS011;61487;56.494;21.014;2022-07-25T01:16:48;8.30;;;4.63;;
57385;SDS011;61487;56.494;21.014;2022-07-25T01:19:15;5.38;;;4.40;;
57385;SDS011;61487;56.494;21.014;2022-07-25T01:21:42;7.70;;;4.75;;
57385;SDS011;61487;56.494;21.014;2022-07-25T01:24:10;5.25;;;4.63;;
57385;SDS011;61487;56.494;21.014;2022-07-25T01:26:37;10.73;;;5.30;;
57385;SDS011;61487;56.494;21.014;2022-07-25T01:29:04;8.40;;;4.45;;
57385;SDS011;61487;56.494;21.014;2022-07-25T01:31:31;11.18;;;5.63;;
57385;SDS011;61487;56.494;21.014;2022-07-25T01:33:58;10.93;;;5.65;;
57385;SDS011;61487;56.494;21.014;2022-07-25T01:36:25;9.07;;;5.13;;
57385;SDS011;61487;56.494;21.014;2022-07-25T01:38:53;8.05;;;4.70;;
57385;SDS011;61487;56.494;21.014;2022-07-25T01:41:20;10.55;;;5.25;;
57385;SDS011;61487;56.494;21.014;2022-07-25T01:43:48;8.50;;;5.28;;
57385;SDS011;61487;56.494;21.014;2022-07-25T01:46:15;7.80;;;4.53;;
57385;SDS011;61487;56.494;21.014;2022-07-25T01:48:42;7.10;;;5.43;;
57385;SDS011;61487;56.494;21.014;2022-07-25T01:51:09;6.25;;;4.88;;
57385;SDS011;61487;56.494;21.014;2022-07-25T01:53:36;17.27;;;5.63;;
57385;SDS011;61487;56.494;21.014;2022-07-25T01:56:04;12.43;;;6.28;;
57385;SDS011;61487;56.494;21.014;2022-07-25T01:58:34;12.15;;;5.72;;
57385;SDS011;61487;56.494;21.014;2022-07-25T02:01:01;9.00;;;5.13;;
57385;SDS011;61487;56.494;21.014;2022-07-25T02:03:28;7.68;;;5.28;;
57385;SDS011;61487;56.494;21.014;2022-07-25T02:05:59;11.63;;;4.93;;
57385;SDS011;61487;56.494;21.014;2022-07-25T02:08:28;9.90;;;5.30;;
57385;SDS011;61487;56.494;21.014;2022-07-25T02:10:56;7.13;;;5.38;;
57385;SDS011;61487;56.494;21.014;2022-07-25T02:13:23;6.75;;;6.15;;
57385;SDS011;61487;56.494;21.014;2022-07-25T02:15:51;11.52;;;6.25;;
57385;SDS011;61487;56.494;21.014;2022-07-25T02:18:18;12.40;;;5.53;;
57385;SDS011;61487;56.494;21.014;2022-07-25T02:20:46;12.55;;;6.20;;
57385;SDS011;61487;56.494;21.014;2022-07-25T02:23:13;10.82;;;5.50;;
57385;SDS011;61487;56.494;21.014;2022-07-25T02:25:40;9.05;;;6.60;;
57385;SDS011;61487;56.494;21.014;2022-07-25T02:28:07;6.95;;;6.15;;
57385;SDS011;61487;56.494;21.014;2022-07-25T02:30:36;9.73;;;6.05;;
57385;SDS011;61487;56.494;21.014;2022-07-25T02:33:03;6.97;;;5.82;;
57385;SDS011;61487;56.494;21.014;2022-07-25T02:35:30;9.70;;;5.97;;
57385;SDS011;61487;56.494;21.014;2022-07-25T02:37:57;8.18;;;6.65;;
57385;SDS011;61487;56.494;21.014;2022-07-25T02:40:25;11.50;;;5.53;;
57385;SDS011;61487;56.494;21.014;2022-07-25T02:42:52;9.43;;;6.18;;
57385;SDS011;61487;56.494;21.014;2022-07-25T02:45:19;11.63;;;6.22;;
57385;SDS011;61487;56.494;21.014;2022-07-25T02:47:46;12.07;;;6.15;;
57385;SDS011;61487;56.494;21.014;2022-07-25T02:50:13;8.13;;;6.90;;
57385;SDS011;61487;56.494;21.014;2022-07-25T02:52:41;11.70;;;5.35;;
57385;SDS011;61487;56.494;21.014;2022-07-25T02:55:09;5.97;;;4.75;;
57385;SDS011;61487;56.494;21.014;2022-07-25T02:57:37;9.43;;;5.32;;
57385;SDS011;61487;56.494;21.014;2022-07-25T03:00:04;12.05;;;7.10;;
57385;SDS011;61487;56.494;21.014;2022-07-25T03:02:32;10.85;;;6.30;;
57385;SDS011;61487;56.494;21.014;2022-07-25T03:04:59;10.93;;;6.00;;
57385;SDS011;61487;56.494;21.014;2022-07-25T03:07:27;9.20;;;5.32;;
57385;SDS011;61487;56.494;21.014;2022-07-25T03:09:54;8.15;;;5.50;;
57385;SDS011;61487;56.494;21.014;2022-07-25T03:12:21;20.73;;;6.55;;
57385;SDS011;61487;56.494;21.014;2022-07-25T03:14:48;10.10;;;5.40;;
57385;SDS011;61487;56.494;21.014;2022-07-25T03:17:15;8.02;;;5.85;;
57385;SDS011;61487;56.494;21.014;2022-07-25T03:19:42;8.98;;;5.70;;
57385;SDS011;61487;56.494;21.014;2022-07-25T03:22:09;9.63;;;5.70;;
57385;SDS011;61487;56.494;21.014;2022-07-25T03:24:36;9.55;;;5.40;;
57385;SDS011;61487;56.494;21.014;2022-07-25T03:27:03;12.05;;;6.70;;
57385;SDS011;61487;56.494;21.014;2022-07-25T03:29:30;7.38;;;5.28;;
57385;SDS011;61487;56.494;21.014;2022-07-25T03:31:57;8.73;;;6.35;;
57385;SDS011;61487;56.494;21.014;2022-07-25T03:34:25;8.13;;;6.03;;
57385;SDS011;61487;56.494;21.014;2022-07-25T03:36:52;7.65;;;5.55;;
57385;SDS011;61487;56.494;21.014;2022-07-25T03:39:19;11.27;;;5.55;;
57385;SDS011;61487;56.494;21.014;2022-07-25T03:41:46;10.18;;;5.85;;
57385;SDS011;61487;56.494;21.014;2022-07-25T03:44:13;6.20;;;5.60;;
57385;SDS011;61487;56.494;21.014;2022-07-25T03:46:40;7.75;;;4.85;;
57385;SDS011;61487;56.494;21.014;2022-07-25T03:49:08;9.57;;;5.07;;
57385;SDS011;61487;56.494;21.014;2022-07-25T03:51:35;8.95;;;6.40;;
57385;SDS011;61487;56.494;21.014;2022-07-25T03:54:02;10.00;;;5.82;;
57385;SDS011;61487;56.494;21.014;2022-07-25T03:56:35;10.80;;;6.30;;
57385;SDS011;61487;56.494;21.014;2022-07-25T03:59:09;9.77;;;5.00;;
57385;SDS011;61487;56.494;21.014;2022-07-25T04:01:38;8.65;;;5.18;;
57385;SDS011;61487;56.494;21.014;2022-07-25T04:04:06;6.45;;;5.07;;
57385;SDS011;61487;56.494;21.014;2022-07-25T04:06:34;11.88;;;5.40;;
57385;SDS011;61487;56.494;21.014;2022-07-25T04:09:02;9.75;;;4.68;;
57385;SDS011;61487;56.494;21.014;2022-07-25T04:11:29;6.35;;;4.53;;
57385;SDS011;61487;56.494;21.014;2022-07-25T04:13:57;10.68;;;5.88;;
57385;SDS011;61487;56.494;21.014;2022-07-25T04:16:24;10.25;;;4.75;;
57385;SDS011;61487;56.494;21.014;2022-07-25T04:18:53;7.70;;;5.15;;
57385;SDS011;61487;56.494;21.014;2022-07-25T04:21:22;7.18;;;4.97;;
57385;SDS011;61487;56.494;21.014;2022-07-25T04:23:50;9.02;;;4.90;;
57385;SDS011;61487;56.494;21.014;2022-07-25T04:26:17;7.15;;;4.30;;
57385;SDS011;61487;56.494;21.014;2022-07-25T04:28:44;8.50;;;4.97;;
57385;SDS011;61487;56.494;21.014;2022-07-25T04:31:12;7.88;;;4.97;;
57385;SDS011;61487;56.494;21.014;2022-07-25T04:33:39;7.90;;;4.35;;
57385;SDS011;61487;56.494;21.014;2022-07-25T04:36:07;10.23;;;4.72;;
57385;SDS011;61487;56.494;21.014;2022-07-25T04:38:35;19.77;;;4.28;;
57385;SDS011;61487;56.494;21.014;2022-07-25T04:41:02;7.05;;;5.25;;
57385;SDS011;61487;56.494;21.014;2022-07-25T04:43:30;7.00;;;4.57;;
57385;SDS011;61487;56.494;21.014;2022-07-25T04:45:57;7.38;;;3.95;;
57385;SDS011;61487;56.494;21.014;2022-07-25T04:48:25;8.00;;;4.38;;
57385;SDS011;61487;56.494;21.014;2022-07-25T04:50:52;7.95;;;4.05;;
57385;SDS011;61487;56.494;21.014;2022-07-25T04:53:19;8.43;;;4.65;;
57385;SDS011;61487;56.494;21.014;2022-07-25T04:55:46;6.95;;;4.50;;
57385;SDS011;61487;56.494;21.014;2022-07-25T04:58:13;7.25;;;4.30;;
57385;SDS011;61487;56.494;21.014;2022-07-25T05:00:40;7.07;;;4.22;;
57385;SDS011;61487;56.494;21.014;2022-07-25T05:03:08;7.50;;;4.55;;
57385;SDS011;61487;56.494;21.014;2022-07-25T05:05:35;7.72;;;4.00;;
57385;SDS011;61487;56.494;21.014;2022-07-25T05:08:03;6.93;;;3.95;;
57385;SDS011;61487;56.494;21.014;2022-07-25T05:10:30;9.43;;;4.65;;
57385;SDS011;61487;56.494;21.014;2022-07-25T05:12:57;8.57;;;4.78;;
57385;SDS011;61487;56.494;21.014;2022-07-25T05:15:24;12.50;;;4.38;;
57385;SDS011;61487;56.494;21.014;2022-07-25T05:17:51;6.47;;;3.95;;
57385;SDS011;61487;56.494;21.014;2022-07-25T05:20:18;10.68;;;4.40;;
57385;SDS011;61487;56.494;21.014;2022-07-25T05:22:45;12.25;;;5.30;;
57385;SDS011;61487;56.494;21.014;2022-07-25T05:25:12;8.30;;;3.72;;
57385;SDS011;61487;56.494;21.014;2022-07-25T05:27:40;8.10;;;4.28;;
57385;SDS011;61487;56.494;21.014;2022-07-25T05:30:07;9.00;;;4.45;;
57385;SDS011;61487;56.494;21.014;2022-07-25T05:32:36;5.78;;;3.63;;
57385;SDS011;61487;56.494;21.014;2022-07-25T05:35:04;6.38;;;5.28;;
57385;SDS011;61487;56.494;21.014;2022-07-25T05:37:33;9.88;;;4.82;;
57385;SDS011;61487;56.494;21.014;2022-07-25T05:40:01;7.20;;;4.38;;
57385;SDS011;61487;56.494;21.014;2022-07-25T05:42:28;10.25;;;4.88;;
57385;SDS011;61487;56.494;21.014;2022-07-25T05:44:56;6.43;;;3.90;;
57385;SDS011;61487;56.494;21.014;2022-07-25T05:47:23;9.45;;;5.03;;
57385;SDS011;61487;56.494;21.014;2022-07-25T05:49:50;7.63;;;4.32;;
57385;SDS011;61487;56.494;21.014;2022-07-25T05:52:17;6.05;;;3.88;;
57385;SDS011;61487;56.494;21.014;2022-07-25T05:54:44;11.68;;;4.82;;
57385;SDS011;61487;56.494;21.014;2022-07-25T05:57:11;8.23;;;4.20;;
57385;SDS011;61487;56.494;21.014;2022-07-25T05:59:38;12.05;;;4.38;;
57385;SDS011;61487;56.494;21.014;2022-07-25T06:02:05;9.38;;;3.58;;
57385;SDS011;61487;56.494;21.014;2022-07-25T06:04:33;7.15;;;4.70;;
57385;SDS011;61487;56.494;21.014;2022-07-25T06:07:00;8.10;;;5.78;;
57385;SDS011;61487;56.494;21.014;2022-07-25T06:09:27;8.32;;;4.70;;
57385;SDS011;61487;56.494;21.014;2022-07-25T06:11:55;6.22;;;4.22;;
57385;SDS011;61487;56.494;21.014;2022-07-25T06:14:26;6.43;;;4.68;;
57385;SDS011;61487;56.494;21.014;2022-07-25T06:16:54;7.60;;;3.83;;
57385;SDS011;61487;56.494;21.014;2022-07-25T06:19:22;8.30;;;4.22;;
57385;SDS011;61487;56.494;21.014;2022-07-25T06:21:49;7.97;;;3.83;;
57385;SDS011;61487;56.494;21.014;2022-07-25T06:24:16;10.57;;;4.00;;
57385;SDS011;61487;56.494;21.014;2022-07-25T06:26:43;5.85;;;4.45;;
57385;SDS011;61487;56.494;21.014;2022-07-25T06:29:10;9.77;;;4.47;;
57385;SDS011;61487;56.494;21.014;2022-07-25T06:31:37;9.02;;;3.92;;
57385;SDS011;61487;56.494;21.014;2022-07-25T06:34:05;8.57;;;5.13;;
57385;SDS011;61487;56.494;21.014;2022-07-25T06:36:32;9.40;;;3.97;;
57385;SDS011;61487;56.494;21.014;2022-07-25T06:39:00;7.63;;;4.30;;
57385;SDS011;61487;56.494;21.014;2022-07-25T06:41:27;10.05;;;4.07;;
57385;SDS011;61487;56.494;21.014;2022-07-25T06:43:54;8.20;;;4.57;;
57385;SDS011;61487;56.494;21.014;2022-07-25T06:46:21;4.60;;;3.95;;
57385;SDS011;61487;56.494;21.014;2022-07-25T06:48:49;6.97;;;3.95;;
57385;SDS011;61487;56.494;21.014;2022-07-25T06:51:16;5.60;;;3.55;;
57385;SDS011;61487;56.494;21.014;2022-07-25T06:53:43;6.75;;;3.53;;
57385;SDS011;61487;56.494;21.014;2022-07-25T06:56:11;9.77;;;4.05;;
57385;SDS011;61487;56.494;21.014;2022-07-25T06:58:42;5.82;;;3.90;;
57385;SDS011;61487;56.494;21.014;2022-07-25T07:01:10;6.35;;;3.20;;
57385;SDS011;61487;56.494;21.014;2022-07-25T07:03:37;4.28;;;2.90;;
57385;SDS011;61487;56.494;21.014;2022-07-25T07:06:06;6.85;;;2.90;;
57385;SDS011;61487;56.494;21.014;2022-07-25T07:08:35;3.67;;;3.10;;
57385;SDS011;61487;56.494;21.014;2022-07-25T07:11:02;6.85;;;3.30;;
57385;SDS011;61487;56.494;21.014;2022-07-25T07:13:30;4.32;;;2.95;;
57385;SDS011;61487;56.494;21.014;2022-07-25T07:15:57;3.97;;;3.15;;
57385;SDS011;61487;56.494;21.014;2022-07-25T07:18:24;4.03;;;3.40;;
57385;SDS011;61487;56.494;21.014;2022-07-25T07:20:51;6.07;;;2.67;;
57385;SDS011;61487;56.494;21.014;2022-07-25T07:23:18;3.63;;;3.20;;
57385;SDS011;61487;56.494;21.014;2022-07-25T07:25:46;7.60;;;3.13;;
57385;SDS011;61487;56.494;21.014;2022-07-25T07:28:13;5.00;;;2.67;;
57385;SDS011;61487;56.494;21.014;2022-07-25T07:30:41;2.45;;;2.15;;
57385;SDS011;61487;56.494;21.014;2022-07-25T07:33:28;3.92;;;2.28;;
57385;SDS011;61487;56.494;21.014;2022-07-25T07:35:56;7.80;;;2.40;;
57385;SDS011;61487;56.494;21.014;2022-07-25T07:38:23;7.10;;;3.03;;
57385;SDS011;61487;56.494;21.014;2022-07-25T07:40:51;5.30;;;2.38;;
57385;SDS011;61487;56.494;21.014;2022-07-25T07:43:19;2.75;;;2.13;;
57385;SDS011;61487;56.494;21.014;2022-07-25T07:45:50;5.72;;;1.98;;
57385;SDS011;61487;56.494;21.014;2022-07-25T07:48:17;4.70;;;2.55;;
57385;SDS011;61487;56.494;21.014;2022-07-25T07:50:44;3.22;;;1.60;;
57385;SDS011;61487;56.494;21.014;2022-07-25T07:53:11;3.75;;;2.47;;
57385;SDS011;61487;56.494;21.014;2022-07-25T07:55:38;3.63;;;2.42;;
57385;SDS011;61487;56.494;21.014;2022-07-25T07:58:14;2.70;;;1.98;;
57385;SDS011;61487;56.494;21.014;2022-07-25T08:00:43;4.85;;;1.90;;
57385;SDS011;61487;56.494;21.014;2022-07-25T08:03:15;3.88;;;1.90;;
57385;SDS011;61487;56.494;21.014;2022-07-25T08:05:47;4.15;;;2.10;;
57385;SDS011;61487;56.494;21.014;2022-07-25T08:08:15;6.07;;;2.63;;
57385;SDS011;61487;56.494;21.014;2022-07-25T08:10:43;3.10;;;2.15;;
57385;SDS011;61487;56.494;21.014;2022-07-25T08:13:12;4.60;;;1.80;;
57385;SDS011;61487;56.494;21.014;2022-07-25T08:15:42;5.18;;;2.72;;
57385;SDS011;61487;56.494;21.014;2022-07-25T08:18:11;2.42;;;2.05;;
57385;SDS011;61487;56.494;21.014;2022-07-25T08:20:46;5.32;;;2.20;;
57385;SDS011;61487;56.494;21.014;2022-07-25T08:23:14;4.53;;;1.80;;
57385;SDS011;61487;56.494;21.014;2022-07-25T08:25:42;2.42;;;2.22;;
57385;SDS011;61487;56.494;21.014;2022-07-25T08:28:10;2.50;;;1.88;;
57385;SDS011;61487;56.494;21.014;2022-07-25T08:30:38;4.60;;;2.50;;
57385;SDS011;61487;56.494;21.014;2022-07-25T08:33:07;4.43;;;2.72;;
57385;SDS011;61487;56.494;21.014;2022-07-25T08:35:36;3.40;;;1.90;;
57385;SDS011;61487;56.494;21.014;2022-07-25T08:38:04;3.97;;;3.03;;
57385;SDS011;61487;56.494;21.014;2022-07-25T08:40:32;5.07;;;2.80;;
57385;SDS011;61487;56.494;21.014;2022-07-25T08:43:00;3.20;;;2.70;;
57385;SDS011;61487;56.494;21.014;2022-07-25T08:45:27;5.85;;;2.75;;
57385;SDS011;61487;56.494;21.014;2022-07-25T08:47:54;2.97;;;2.30;;
57385;SDS011;61487;56.494;21.014;2022-07-25T08:50:26;4.35;;;2.30;;
57385;SDS011;61487;56.494;21.014;2022-07-25T08:52:54;5.22;;;2.60;;
57385;SDS011;61487;56.494;21.014;2022-07-25T08:55:42;6.22;;;2.85;;
57385;SDS011;61487;56.494;21.014;2022-07-25T08:58:11;3.80;;;2.53;;
57385;SDS011;61487;56.494;21.014;2022-07-25T09:00:40;4.70;;;2.20;;
57385;SDS011;61487;56.494;21.014;2022-07-25T09:03:07;5.45;;;2.60;;
57385;SDS011;61487;56.494;21.014;2022-07-25T09:05:35;4.93;;;2.53;;
57385;SDS011;61487;56.494;21.014;2022-07-25T09:08:10;2.45;;;1.85;;
57385;SDS011;61487;56.494;21.014;2022-07-25T09:10:38;5.60;;;2.75;;
57385;SDS011;61487;56.494;21.014;2022-07-25T09:13:11;1.85;;;1.70;;
57385;SDS011;61487;56.494;21.014;2022-07-25T09:18:15;3.60;;;1.90;;
57385;SDS011;61487;56.494;21.014;2022-07-25T09:20:44;5.97;;;2.05;;
57385;SDS011;61487;56.494;21.014;2022-07-25T09:23:12;4.18;;;2.15;;
57385;SDS011;61487;56.494;21.014;2022-07-25T09:25:52;5.03;;;2.22;;
57385;SDS011;61487;56.494;21.014;2022-07-25T09:28:31;3.70;;;2.13;;
57385;SDS011;61487;56.494;21.014;2022-07-25T09:31:05;5.50;;;2.13;;
57385;SDS011;61487;56.494;21.014;2022-07-25T09:33:32;2.20;;;1.35;;
57385;SDS011;61487;56.494;21.014;2022-07-25T09:36:08;5.43;;;1.92;;
57385;SDS011;61487;56.494;21.014;2022-07-25T09:38:37;2.22;;;1.50;;
57385;SDS011;61487;56.494;21.014;2022-07-25T09:41:04;3.45;;;1.50;;
57385;SDS011;61487;56.494;21.014;2022-07-25T09:43:38;4.80;;;1.90;;
57385;SDS011;61487;56.494;21.014;2022-07-25T09:46:06;7.00;;;6.28;;
57385;SDS011;61487;56.494;21.014;2022-07-25T09:48:35;2.08;;;1.65;;
57385;SDS011;61487;56.494;21.014;2022-07-25T09:51:03;2.70;;;1.98;;
57385;SDS011;61487;56.494;21.014;2022-07-25T09:53:31;6.63;;;2.30;;
57385;SDS011;61487;56.494;21.014;2022-07-25T09:55:59;2.63;;;2.38;;
57385;SDS011;61487;56.494;21.014;2022-07-25T09:58:27;3.67;;;2.72;;
57385;SDS011;61487;56.494;21.014;2022-07-25T10:00:56;4.78;;;2.40;;
57385;SDS011;61487;56.494;21.014;2022-07-25T10:03:33;4.00;;;3.33;;
57385;SDS011;61487;56.494;21.014;2022-07-25T10:09:11;2.53;;;2.08;;
57385;SDS011;61487;56.494;21.014;2022-07-25T10:11:39;5.25;;;2.60;;
57385;SDS011;61487;56.494;21.014;2022-07-25T10:14:26;5.20;;;3.15;;
57385;SDS011;61487;56.494;21.014;2022-07-25T10:16:53;4.38;;;2.65;;
57385;SDS011;61487;56.494;21.014;2022-07-25T10:22:18;4.40;;;2.70;;
57385;SDS011;61487;56.494;21.014;2022-07-25T10:25:12;7.45;;;2.55;;
57385;SDS011;61487;56.494;21.014;2022-07-25T10:27:46;4.97;;;3.03;;
57385;SDS011;61487;56.494;21.014;2022-07-25T10:30:24;5.05;;;3.28;;
57385;SDS011;61487;56.494;21.014;2022-07-25T10:35:38;4.45;;;2.80;;
57385;SDS011;61487;56.494;21.014;2022-07-25T10:38:05;2.88;;;2.58;;
57385;SDS011;61487;56.494;21.014;2022-07-25T10:43:16;3.88;;;2.40;;
57385;SDS011;61487;56.494;21.014;2022-07-25T10:48:20;5.30;;;2.15;;
57385;SDS011;61487;56.494;21.014;2022-07-25T10:50:58;7.20;;;2.45;;
57385;SDS011;61487;56.494;21.014;2022-07-25T10:56:19;4.50;;;2.08;;
57385;SDS011;61487;56.494;21.014;2022-07-25T10:58:57;3.13;;;2.20;;
57385;SDS011;61487;56.494;21.014;2022-07-25T11:01:29;3.42;;;1.90;;
57385;SDS011;61487;56.494;21.014;2022-07-25T11:04:03;5.90;;;2.45;;
57385;SDS011;61487;56.494;21.014;2022-07-25T11:06:33;3.13;;;2.38;;
57385;SDS011;61487;56.494;21.014;2022-07-25T11:11:46;4.03;;;2.45;;
57385;SDS011;61487;56.494;21.014;2022-07-25T11:14:19;4.53;;;1.77;;
57385;SDS011;61487;56.494;21.014;2022-07-25T11:16:52;3.42;;;2.25;;
57385;SDS011;61487;56.494;21.014;2022-07-25T11:19:22;4.05;;;1.70;;
57385;SDS011;61487;56.494;21.014;2022-07-25T11:21:55;3.22;;;2.17;;
57385;SDS011;61487;56.494;21.014;2022-07-25T11:24:42;3.67;;;2.00;;
57385;SDS011;61487;56.494;21.014;2022-07-25T11:27:11;3.40;;;2.03;;
57385;SDS011;61487;56.494;21.014;2022-07-25T11:29:47;5.82;;;2.70;;
57385;SDS011;61487;56.494;21.014;2022-07-25T11:32:14;5.47;;;2.45;;
57385;SDS011;61487;56.494;21.014;2022-07-25T11:34:49;6.68;;;2.25;;
57385;SDS011;61487;56.494;21.014;2022-07-25T11:37:19;3.20;;;1.85;;
57385;SDS011;61487;56.494;21.014;2022-07-25T11:39:47;4.43;;;1.95;;
57385;SDS011;61487;56.494;21.014;2022-07-25T11:42:15;5.78;;;2.45;;
57385;SDS011;61487;56.494;21.014;2022-07-25T11:47:29;3.90;;;2.22;;
57385;SDS011;61487;56.494;21.014;2022-07-25T11:50:00;4.00;;;3.60;;
57385;SDS011;61487;56.494;21.014;2022-07-25T11:52:33;4.28;;;2.55;;
57385;SDS011;61487;56.494;21.014;2022-07-25T11:57:30;3.72;;;2.38;;
57385;SDS011;61487;56.494;21.014;2022-07-25T12:00:03;4.10;;;2.35;;
57385;SDS011;61487;56.494;21.014;2022-07-25T12:02:40;7.03;;;2.90;;
57385;SDS011;61487;56.494;21.014;2022-07-25T12:05:08;3.95;;;2.33;;
57385;SDS011;61487;56.494;21.014;2022-07-25T12:12:52;3.22;;;2.17;;
57385;SDS011;61487;56.494;21.014;2022-07-25T12:15:28;4.30;;;2.05;;
57385;SDS011;61487;56.494;21.014;2022-07-25T12:17:58;2.60;;;1.75;;
57385;SDS011;61487;56.494;21.014;2022-07-25T12:20:28;2.25;;;1.63;;
57385;SDS011;61487;56.494;21.014;2022-07-25T12:22:58;2.90;;;1.80;;
57385;SDS011;61487;56.494;21.014;2022-07-25T12:25:32;3.20;;;2.17;;
57385;SDS011;61487;56.494;21.014;2022-07-25T12:28:01;4.32;;;2.03;;
57385;SDS011;61487;56.494;21.014;2022-07-25T12:30:28;4.80;;;2.45;;
57385;SDS011;61487;56.494;21.014;2022-07-25T12:32:56;2.78;;;2.38;;
57385;SDS011;61487;56.494;21.014;2022-07-25T12:35:24;2.38;;;1.90;;
57385;SDS011;61487;56.494;21.014;2022-07-25T12:37:52;3.03;;;2.10;;
57385;SDS011;61487;56.494;21.014;2022-07-25T12:40:20;3.47;;;3.13;;
57385;SDS011;61487;56.494;21.014;2022-07-25T12:42:48;4.05;;;3.20;;
57385;SDS011;61487;56.494;21.014;2022-07-25T12:45:15;3.80;;;2.92;;
57385;SDS011;61487;56.494;21.014;2022-07-25T12:47:43;3.60;;;3.10;;
57385;SDS011;61487;56.494;21.014;2022-07-25T12:50:11;7.07;;;2.10;;
57385;SDS011;61487;56.494;21.014;2022-07-25T12:52:39;2.80;;;1.77;;
57385;SDS011;61487;56.494;21.014;2022-07-25T12:55:08;5.78;;;2.05;;
57385;SDS011;61487;56.494;21.014;2022-07-25T12:57:45;4.72;;;2.90;;
57385;SDS011;61487;56.494;21.014;2022-07-25T13:00:14;4.07;;;1.77;;
57385;SDS011;61487;56.494;21.014;2022-07-25T13:02:43;4.45;;;2.17;;
57385;SDS011;61487;56.494;21.014;2022-07-25T13:05:10;2.60;;;1.73;;
57385;SDS011;61487;56.494;21.014;2022-07-25T13:07:38;3.72;;;1.90;;
57385;SDS011;61487;56.494;21.014;2022-07-25T13:10:05;4.47;;;3.03;;
57385;SDS011;61487;56.494;21.014;2022-07-25T13:12:33;5.10;;;2.70;;
57385;SDS011;61487;56.494;21.014;2022-07-25T13:15:00;3.63;;;2.20;;
57385;SDS011;61487;56.494;21.014;2022-07-25T13:17:28;5.15;;;2.45;;
57385;SDS011;61487;56.494;21.014;2022-07-25T13:19:55;5.38;;;1.90;;
57385;SDS011;61487;56.494;21.014;2022-07-25T13:22:23;3.95;;;1.92;;
57385;SDS011;61487;56.494;21.014;2022-07-25T13:24:51;3.00;;;1.95;;
57385;SDS011;61487;56.494;21.014;2022-07-25T13:27:19;2.63;;;2.10;;
57385;SDS011;61487;56.494;21.014;2022-07-25T13:29:47;2.67;;;2.45;;
57385;SDS011;61487;56.494;21.014;2022-07-25T13:32:20;2.83;;;2.13;;
57385;SDS011;61487;56.494;21.014;2022-07-25T13:34:49;4.97;;;2.17;;
57385;SDS011;61487;56.494;21.014;2022-07-25T13:37:16;3.17;;;2.35;;
57385;SDS011;61487;56.494;21.014;2022-07-25T13:39:43;6.95;;;2.47;;
57385;SDS011;61487;56.494;21.014;2022-07-25T13:42:11;4.43;;;2.10;;
57385;SDS011;61487;56.494;21.014;2022-07-25T13:44:38;2.90;;;2.22;;
57385;SDS011;61487;56.494;21.014;2022-07-25T13:47:05;3.42;;;2.15;;
57385;SDS011;61487;56.494;21.014;2022-07-25T13:49:32;2.20;;;2.00;;
57385;SDS011;61487;56.494;21.014;2022-07-25T13:51:59;2.53;;;1.92;;
57385;SDS011;61487;56.494;21.014;2022-07-25T13:54:28;3.13;;;2.03;;
57385;SDS011;61487;56.494;21.014;2022-07-25T13:56:56;4.05;;;2.20;;
57385;SDS011;61487;56.494;21.014;2022-07-25T13:59:23;5.10;;;2.30;;
57385;SDS011;61487;56.494;21.014;2022-07-25T14:01:50;5.65;;;2.10;;
57385;SDS011;61487;56.494;21.014;2022-07-25T14:04:18;5.13;;;2.03;;
57385;SDS011;61487;56.494;21.014;2022-07-25T14:06:45;2.90;;;2.60;;
57385;SDS011;61487;56.494;21.014;2022-07-25T14:09:20;3.08;;;1.90;;
57385;SDS011;61487;56.494;21.014;2022-07-25T14:11:47;4.88;;;2.03;;
57385;SDS011;61487;56.494;21.014;2022-07-25T14:14:14;2.45;;;1.70;;
57385;SDS011;61487;56.494;21.014;2022-07-25T14:16:42;2.88;;;2.05;;
57385;SDS011;61487;56.494;21.014;2022-07-25T14:19:09;2.30;;;1.70;;
57385;SDS011;61487;56.494;21.014;2022-07-25T14:21:36;2.00;;;1.80;;
57385;SDS011;61487;56.494;21.014;2022-07-25T14:24:03;7.10;;;5.47;;
57385;SDS011;61487;56.494;21.014;2022-07-25T14:26:31;4.38;;;1.90;;
57385;SDS011;61487;56.494;21.014;2022-07-25T14:28:59;3.50;;;1.75;;
57385;SDS011;61487;56.494;21.014;2022-07-25T14:31:27;2.90;;;2.15;;
57385;SDS011;61487;56.494;21.014;2022-07-25T14:33:54;5.90;;;1.98;;
57385;SDS011;61487;56.494;21.014;2022-07-25T14:36:24;2.60;;;2.20;;
57385;SDS011;61487;56.494;21.014;2022-07-25T14:38:51;4.18;;;2.60;;
57385;SDS011;61487;56.494;21.014;2022-07-25T14:41:18;3.72;;;2.25;;
57385;SDS011;61487;56.494;21.014;2022-07-25T14:43:45;2.42;;;2.00;;
57385;SDS011;61487;56.494;21.014;2022-07-25T14:46:12;4.63;;;2.95;;
57385;SDS011;61487;56.494;21.014;2022-07-25T14:48:41;7.03;;;3.75;;
57385;SDS011;61487;56.494;21.014;2022-07-25T14:51:08;3.25;;;2.75;;
57385;SDS011;61487;56.494;21.014;2022-07-25T14:53:35;4.97;;;3.00;;
57385;SDS011;61487;56.494;21.014;2022-07-25T14:56:03;5.30;;;2.58;;
57385;SDS011;61487;56.494;21.014;2022-07-25T14:58:31;3.80;;;3.42;;
57385;SDS011;61487;56.494;21.014;2022-07-25T15:00:58;5.70;;;3.58;;
57385;SDS011;61487;56.494;21.014;2022-07-25T15:03:26;5.60;;;4.05;;
57385;SDS011;61487;56.494;21.014;2022-07-25T15:05:53;4.47;;;3.90;;
57385;SDS011;61487;56.494;21.014;2022-07-25T15:08:20;10.07;;;7.32;;
57385;SDS011;61487;56.494;21.014;2022-07-25T15:10:47;4.40;;;3.75;;
57385;SDS011;61487;56.494;21.014;2022-07-25T15:13:14;4.05;;;3.67;;